Tivoli, Pennsylvania
Current Conditions -  °F | °C
As of 3:54 PM on Thursday 23 Oct 2014 (Local Time) from KIPT Reporting Station
Overcast Overcast  
Wind Chill: 59°   Ceiling: 3600
Heat Index: 59°   Visibility: 10mi
Dew Point: 43°   Wind: 13mph
Humidity: 55%   Direction: 340°NNW
Pressure: 29.87"   Gusts: 23mph
Location:  41.2862°N, 76.6822°W
Report Text: KIPT 231954Z 34011G20KT 10SM OVC036 15/06 A2987 RMK AO2 SLP115 T01500061
Loading
Personal Weather Stations






























Interactive Weather Map
Tropical Storm Tracking
New forecast layout! Learn more

10-Day Weather Forecast

Advertisements
Track Severe Weather on mobile